Time;durP1;ratioP1;P1;durP2;ratioP2;P2;SDS_P1;SDS_P2;PMS_P1;PMS_P2;Temp;Humidity;BMP_temperature;BMP_pressure;BME280_temperature;BME280_humidity;BME280_pressure;Samples;Min_cycle;Max_cycle;Signal;HPM_P1;HPM_P2
2022/12/30 00:00:57;;;;;;;22.63;8.00;;;;;;;;;;5011314;28;20053;-63
2022/12/30 00:03:23;;;;;;;19.80;8.88;;;;;;;;;;5011299;28;20029;-62
2022/12/30 00:05:49;;;;;;;19.73;7.95;;;;;;;;;;4994523;28;20467;-61
2022/12/30 00:11:00;;;;;;;21.55;8.57;;;;;;;;;;5011866;28;20036;-62
2022/12/30 00:35:46;;;;;;;19.27;8.38;;;;;;;;;;4967774;28;20022;-62
2022/12/30 00:38:12;;;;;;;23.20;9.65;;;;;;;;;;5011845;28;20386;-63
2022/12/30 00:43:07;;;;;;;20.67;9.65;;;;;;;;;;5011868;28;20014;-63
2022/12/30 00:43:24;;;;;;;21.40;7.28;;;;;;;;;;5010825;28;20516;-64
2022/12/30 00:45:50;;;;;;;18.85;7.47;;;;;;;;;;5014882;28;20115;-64
2022/12/30 00:56:30;;;;;;;24.73;8.48;;;;;;;;;;5015636;28;20540;-63
2022/12/30 00:58:56;;;;;;;18.13;8.48;;;;;;;;;;5015395;28;20061;-64
2022/12/30 01:01:22;;;;;;;23.10;8.15;;;;;;;;;;5015464;28;20398;-64
2022/12/30 01:03:48;;;;;;;19.80;7.55;;;;;;;;;;4996885;28;20022;-63
2022/12/30 01:06:14;;;;;;;20.75;7.78;;;;;;;;;;4997584;28;20085;-63
2022/12/30 01:08:40;;;;;;;21.33;7.65;;;;;;;;;;5015350;28;20045;-62
2022/12/30 01:11:07;;;;;;;15.25;7.60;;;;;;;;;;5015343;28;20022;-62
2022/12/30 01:13:33;;;;;;;22.25;8.52;;;;;;;;;;4997018;28;20115;-62
2022/12/30 01:16:05;;;;;;;21.83;8.48;;;;;;;;;;4997614;28;20054;-62
2022/12/30 01:18:31;;;;;;;19.50;8.32;;;;;;;;;;5015160;28;20033;-63
2022/12/30 01:21:01;;;;;;;20.48;7.80;;;;;;;;;;5015210;28;20108;-62
2022/12/30 01:23:27;;;;;;;21.58;8.77;;;;;;;;;;5014489;28;20714;-62
2022/12/30 01:25:53;;;;;;;19.65;8.13;;;;;;;;;;4997190;28;20477;-62
2022/12/30 01:28:19;;;;;;;19.20;8.02;;;;;;;;;;5014993;28;20029;-62
2022/12/30 01:30:44;;;;;;;21.17;8.35;;;;;;;;;;5015110;28;20072;-62
2022/12/30 01:33:10;;;;;;;20.90;8.02;;;;;;;;;;5014128;28;20030;-59
2022/12/30 01:35:37;;;;;;;19.23;8.45;;;;;;;;;;5014843;28;20026;-64
2022/12/30 01:38:03;;;;;;;18.75;7.82;;;;;;;;;;5014787;28;20537;-63
2022/12/30 01:40:29;;;;;;;20.52;8.73;;;;;;;;;;4997319;28;20474;-64
2022/12/30 01:42:55;;;;;;;20.83;8.25;;;;;;;;;;4996892;28;20037;-60
2022/12/30 01:45:26;;;;;;;20.23;8.32;;;;;;;;;;4996085;28;20021;-63
2022/12/30 01:47:53;;;;;;;21.15;8.82;;;;;;;;;;5015244;28;20026;-63
2022/12/30 01:50:31;;;;;;;19.10;8.40;;;;;;;;;;5015354;28;20018;-64
2022/12/30 01:53:00;;;;;;;21.20;8.77;;;;;;;;;;4996915;28;20113;-61
2022/12/30 01:55:35;;;;;;;21.48;8.45;;;;;;;;;;4995843;28;20037;-63
2022/12/30 01:58:03;;;;;;;24.55;10.15;;;;;;;;;;5014077;28;20537;-63
2022/12/30 02:00:29;;;;;;;19.75;8.65;;;;;;;;;;5014130;28;20033;-64
2022/12/30 02:02:56;;;;;;;25.27;9.85;;;;;;;;;;5014309;28;20026;-62
2022/12/30 02:05:23;;;;;;;19.02;7.75;;;;;;;;;;5013591;28;20033;-63
2022/12/30 02:07:51;;;;;;;21.83;8.10;;;;;;;;;;5014377;28;20036;-63
2022/12/30 02:10:18;;;;;;;17.77;7.95;;;;;;;;;;5014463;28;20030;-64
2022/12/30 02:12:44;;;;;;;20.00;8.82;;;;;;;;;;5014103;28;20022;-64
2022/12/30 02:15:11;;;;;;;22.23;9.18;;;;;;;;;;5013411;28;20034;-65
2022/12/30 02:17:43;;;;;;;22.23;9.40;;;;;;;;;;4996592;28;20065;-63
2022/12/30 02:20:12;;;;;;;17.70;8.23;;;;;;;;;;5014271;28;20029;-63
2022/12/30 02:22:57;;;;;;;24.48;8.60;;;;;;;;;;5014015;28;20079;-63
2022/12/30 02:25:39;;;;;;;27.35;8.88;;;;;;;;;;5013345;28;20033;-65
2022/12/30 02:28:11;;;;;;;19.55;8.27;;;;;;;;;;5013561;28;20382;-64
2022/12/30 02:30:40;;;;;;;21.10;8.23;;;;;;;;;;5013903;28;20030;-63
2022/12/30 02:33:09;;;;;;;26.08;11.55;;;;;;;;;;5013277;28;20026;-64
2022/12/30 02:35:40;;;;;;;21.60;8.95;;;;;;;;;;5013994;28;20487;-60
2022/12/30 02:38:12;;;;;;;18.83;9.27;;;;;;;;;;4996195;28;20075;-64
2022/12/30 02:46:29;;;;;;;17.65;8.73;;;;;;;;;;5013427;28;20107;-62
2022/12/30 02:48:56;;;;;;;18.48;8.60;;;;;;;;;;5013688;28;20022;-63
2022/12/30 02:54:08;;;;;;;19.73;9.23;;;;;;;;;;5012997;28;20060;-61
2022/12/30 02:56:34;;;;;;;18.70;8.48;;;;;;;;;;4995888;28;20029;-62
2022/12/30 03:05:24;;;;;;;22.95;9.27;;;;;;;;;;4943461;29;20031;-63
2022/12/30 03:08:00;;;;;;;19.75;9.13;;;;;;;;;;4988601;28;20068;-60
2022/12/30 03:13:39;;;;;;;26.42;10.27;;;;;;;;;;5012752;28;20059;-62
2022/12/30 03:16:08;;;;;;;23.17;9.38;;;;;;;;;;4995415;28;20052;-64
2022/12/30 03:18:34;;;;;;;22.30;9.18;;;;;;;;;;5013038;28;20394;-63
2022/12/30 03:21:01;;;;;;;23.13;8.57;;;;;;;;;;5012972;28;20030;-61
2022/12/30 03:29:00;;;;;;;22.48;8.25;;;;;;;;;;5012842;28;20084;-64
2022/12/30 03:31:26;;;;;;;19.75;8.73;;;;;;;;;;4995166;28;20022;-63
2022/12/30 03:33:52;;;;;;;25.90;10.00;;;;;;;;;;5012015;28;20309;-65
2022/12/30 03:36:21;;;;;;;18.60;9.07;;;;;;;;;;5012700;28;20033;-63
2022/12/30 03:38:54;;;;;;;22.88;9.60;;;;;;;;;;5012609;28;20060;-62
2022/12/30 03:41:21;;;;;;;21.05;9.50;;;;;;;;;;5012658;28;20112;-63
2022/12/30 03:43:48;;;;;;;26.60;9.23;;;;;;;;;;4994214;28;20022;-64
2022/12/30 03:46:15;;;;;;;25.70;9.95;;;;;;;;;;5012269;28;20498;-63
2022/12/30 03:48:41;;;;;;;26.27;10.00;;;;;;;;;;5012508;28;20061;-63
2022/12/30 03:51:07;;;;;;;24.75;10.38;;;;;;;;;;4995061;28;20113;-62
2022/12/30 03:53:33;;;;;;;24.42;9.50;;;;;;;;;;5011746;28;20538;-64
2022/12/30 03:55:59;;;;;;;18.40;9.98;;;;;;;;;;4995025;28;20045;-63
2022/12/30 03:58:25;;;;;;;19.65;10.00;;;;;;;;;;5011001;28;20104;-62
2022/12/30 04:00:51;;;;;;;26.13;9.98;;;;;;;;;;5012635;28;20033;-63
2022/12/30 04:03:17;;;;;;;21.92;9.82;;;;;;;;;;5011642;28;20030;-63
2022/12/30 04:05:43;;;;;;;19.90;10.35;;;;;;;;;;5012450;28;20396;-64
2022/12/30 04:08:09;;;;;;;24.05;10.30;;;;;;;;;;4994790;28;20088;-63
2022/12/30 04:10:35;;;;;;;19.67;9.73;;;;;;;;;;5012414;28;20077;-62
2022/12/30 04:13:01;;;;;;;26.10;11.55;;;;;;;;;;5011779;28;20463;-60
2022/12/30 04:15:27;;;;;;;19.73;10.48;;;;;;;;;;5012256;28;20057;-64
2022/12/30 04:17:53;;;;;;;19.73;10.23;;;;;;;;;;5012100;28;20061;-64
2022/12/30 04:20:19;;;;;;;24.13;9.93;;;;;;;;;;5011573;28;20022;-62
2022/12/30 04:22:45;;;;;;;22.80;10.23;;;;;;;;;;4994403;28;20029;-61
2022/12/30 04:25:11;;;;;;;26.88;10.48;;;;;;;;;;5011144;28;20052;-63
2022/12/30 04:27:37;;;;;;;21.80;10.98;;;;;;;;;;4994310;28;20109;-63
2022/12/30 04:30:03;;;;;;;23.63;11.10;;;;;;;;;;5011910;28;20029;-63
2022/12/30 04:32:31;;;;;;;19.70;9.65;;;;;;;;;;4994152;28;20419;-61
2022/12/30 04:34:57;;;;;;;23.50;9.85;;;;;;;;;;5011129;28;20030;-61
2022/12/30 04:37:23;;;;;;;19.83;10.10;;;;;;;;;;5011808;28;20038;-64
2022/12/30 04:39:49;;;;;;;21.30;9.55;;;;;;;;;;5011731;28;20030;-64
2022/12/30 04:42:15;;;;;;;25.50;10.40;;;;;;;;;;5011802;28;20102;-64
2022/12/30 04:44:40;;;;;;;27.75;10.70;;;;;;;;;;4993156;28;20517;-63
2022/12/30 04:47:06;;;;;;;23.25;10.70;;;;;;;;;;5011925;28;20026;-63
2022/12/30 04:49:32;;;;;;;21.20;9.90;;;;;;;;;;5011689;28;20030;-62
2022/12/30 04:51:58;;;;;;;24.23;9.68;;;;;;;;;;4994224;28;20030;-62
2022/12/30 04:54:24;;;;;;;23.38;10.40;;;;;;;;;;5010920;28;20066;-64
2022/12/30 04:56:50;;;;;;;22.33;10.60;;;;;;;;;;5011637;28;20029;-62
2022/12/30 04:59:16;;;;;;;25.13;9.75;;;;;;;;;;5011570;28;20022;-62
2022/12/30 05:01:42;;;;;;;23.00;10.82;;;;;;;;;;5011687;28;20088;-65
2022/12/30 05:04:08;;;;;;;22.23;11.20;;;;;;;;;;5010848;28;20037;-63
2022/12/30 05:06:34;;;;;;;27.05;11.60;;;;;;;;;;5011619;28;20022;-63
2022/12/30 05:09:01;;;;;;;23.77;10.30;;;;;;;;;;5011698;28;20033;-64
2022/12/30 05:11:27;;;;;;;20.17;11.05;;;;;;;;;;4993861;28;20084;-63
2022/12/30 05:13:53;;;;;;;25.15;10.45;;;;;;;;;;5010757;28;20396;-63
2022/12/30 05:16:19;;;;;;;19.58;10.32;;;;;;;;;;4993903;28;20018;-62
2022/12/30 05:18:45;;;;;;;21.48;10.93;;;;;;;;;;5011446;28;20520;-62
2022/12/30 05:21:11;;;;;;;19.75;10.70;;;;;;;;;;4993806;28;20025;-64
2022/12/30 05:26:21;;;;;;;21.30;10.90;;;;;;;;;;5011505;28;20041;-63
2022/12/30 05:28:48;;;;;;;23.58;11.40;;;;;;;;;;5011289;28;20022;-63
2022/12/30 05:31:15;;;;;;;24.35;10.73;;;;;;;;;;4995924;28;20030;-63
2022/12/30 05:33:41;;;;;;;20.13;10.20;;;;;;;;;;5014267;28;20022;-64
2022/12/30 05:36:08;;;;;;;27.30;10.88;;;;;;;;;;4997090;28;20136;-62
2022/12/30 05:38:34;;;;;;;24.17;10.43;;;;;;;;;;5015109;28;20415;-63
2022/12/30 05:41:00;;;;;;;25.55;11.18;;;;;;;;;;4997198;28;20025;-63
2022/12/30 05:43:26;;;;;;;27.33;10.75;;;;;;;;;;5013860;28;20549;-63
2022/12/30 05:45:52;;;;;;;23.77;10.60;;;;;;;;;;5036718;23;20145;-65
2022/12/30 05:48:18;;;;;;;23.77;11.15;;;;;;;;;;5028272;28;20117;-65
2022/12/30 05:50:47;;;;;;;25.77;11.70;;;;;;;;;;5006163;28;20022;-66
2022/12/30 05:53:13;;;;;;;20.80;10.52;;;;;;;;;;5011993;28;20030;-65
2022/12/30 05:55:39;;;;;;;23.85;12.43;;;;;;;;;;5006241;28;20026;-65
2022/12/30 05:58:05;;;;;;;21.35;10.45;;;;;;;;;;5001054;28;20084;-66
2022/12/30 06:00:31;;;;;;;21.60;11.02;;;;;;;;;;4993041;28;20030;-65
2022/12/30 06:02:57;;;;;;;19.80;10.63;;;;;;;;;;4992951;28;20072;-64
2022/12/30 06:05:23;;;;;;;23.20;10.80;;;;;;;;;;4991810;28;20030;-65
2022/12/30 06:07:49;;;;;;;23.38;11.60;;;;;;;;;;5005291;28;20371;-65
2022/12/30 06:10:16;;;;;;;21.75;10.50;;;;;;;;;;5012656;28;20028;-66
2022/12/30 06:12:42;;;;;;;23.88;11.95;;;;;;;;;;5011562;28;20029;-66
2022/12/30 06:15:08;;;;;;;19.55;10.68;;;;;;;;;;5011704;28;20418;-63
2022/12/30 06:17:34;;;;;;;22.15;11.77;;;;;;;;;;5011157;28;20037;-63
2022/12/30 06:20:00;;;;;;;24.13;11.75;;;;;;;;;;5012453;28;20032;-65
2022/12/30 06:22:26;;;;;;;22.23;10.38;;;;;;;;;;5012192;28;20030;-65
2022/12/30 06:24:52;;;;;;;18.67;10.30;;;;;;;;;;4999229;28;20034;-66
2022/12/30 06:27:18;;;;;;;21.30;10.52;;;;;;;;;;4992727;28;20019;-65
2022/12/30 06:29:44;;;;;;;26.17;12.20;;;;;;;;;;4992358;28;20081;-65
2022/12/30 06:32:10;;;;;;;20.88;10.85;;;;;;;;;;4992750;28;20026;-64
2022/12/30 06:34:36;;;;;;;22.02;10.45;;;;;;;;;;4991606;28;20033;-64
2022/12/30 06:37:02;;;;;;;23.33;11.07;;;;;;;;;;4992326;28;20031;-65
2022/12/30 06:39:28;;;;;;;21.73;10.05;;;;;;;;;;4992458;28;20030;-65
2022/12/30 06:41:54;;;;;;;20.63;10.18;;;;;;;;;;4991728;28;20396;-66
2022/12/30 06:44:20;;;;;;;17.98;10.30;;;;;;;;;;4990090;28;20034;-65
2022/12/30 06:46:46;;;;;;;19.92;10.25;;;;;;;;;;4990802;28;20502;-65
2022/12/30 06:49:12;;;;;;;24.10;11.10;;;;;;;;;;4990959;28;20034;-65
2022/12/30 06:51:38;;;;;;;23.75;10.50;;;;;;;;;;4992163;28;20506;-65
2022/12/30 06:54:04;;;;;;;21.70;10.02;;;;;;;;;;4991498;28;20042;-62
2022/12/30 06:56:30;;;;;;;23.98;10.35;;;;;;;;;;4992095;28;20475;-65
2022/12/30 06:58:56;;;;;;;20.70;10.65;;;;;;;;;;4992367;28;20119;-65
2022/12/30 07:01:22;;;;;;;22.02;11.07;;;;;;;;;;4999343;28;20079;-64
2022/12/30 07:03:48;;;;;;;24.10;10.77;;;;;;;;;;5010442;28;20472;-65
2022/12/30 07:06:14;;;;;;;21.40;10.73;;;;;;;;;;5012394;28;20022;-65
2022/12/30 07:08:40;;;;;;;22.10;10.85;;;;;;;;;;5011459;28;20022;-65
2022/12/30 07:11:06;;;;;;;20.98;10.93;;;;;;;;;;5011287;28;20102;-63
2022/12/30 07:13:32;;;;;;;25.60;12.07;;;;;;;;;;5010568;28;20028;-66
2022/12/30 07:15:58;;;;;;;20.20;10.90;;;;;;;;;;5011097;28;20018;-65
2022/12/30 07:18:24;;;;;;;21.25;11.20;;;;;;;;;;5009872;28;20050;-65
2022/12/30 07:20:50;;;;;;;21.10;11.05;;;;;;;;;;5009850;28;20491;-65
2022/12/30 07:23:16;;;;;;;19.80;10.80;;;;;;;;;;5009985;28;20026;-63
2022/12/30 07:25:45;;;;;;;17.60;10.40;;;;;;;;;;5001542;28;20048;-65
2022/12/30 07:28:11;;;;;;;28.20;11.95;;;;;;;;;;5011501;28;20022;-64
2022/12/30 07:30:37;;;;;;;20.60;10.93;;;;;;;;;;5011579;28;20053;-64
2022/12/30 07:33:03;;;;;;;18.08;11.25;;;;;;;;;;5010841;28;20026;-64
2022/12/30 07:35:29;;;;;;;20.98;10.95;;;;;;;;;;5009580;28;20026;-65
2022/12/30 07:37:55;;;;;;;21.73;10.70;;;;;;;;;;5011517;28;20026;-65
2022/12/30 07:40:21;;;;;;;20.80;10.68;;;;;;;;;;5011602;28;20474;-64
2022/12/30 07:42:47;;;;;;;24.20;11.05;;;;;;;;;;5011678;28;20034;-64
2022/12/30 07:45:13;;;;;;;25.15;11.60;;;;;;;;;;5009286;28;20033;-65
2022/12/30 07:47:42;;;;;;;19.95;10.65;;;;;;;;;;5011489;28;20199;-66
2022/12/30 07:50:09;;;;;;;22.77;10.68;;;;;;;;;;5011563;28;20021;-64
2022/12/30 07:52:35;;;;;;;18.02;10.10;;;;;;;;;;5000791;28;20026;-65
2022/12/30 07:55:01;;;;;;;19.05;10.77;;;;;;;;;;4991300;28;20359;-65
2022/12/30 07:57:28;;;;;;;23.58;11.23;;;;;;;;;;4992026;28;20070;-62
2022/12/30 07:59:54;;;;;;;19.75;10.20;;;;;;;;;;4992068;28;20509;-65
2022/12/30 08:02:20;;;;;;;22.67;11.38;;;;;;;;;;4991967;28;20034;-65
2022/12/30 08:04:46;;;;;;;19.17;10.43;;;;;;;;;;4991222;28;20034;-64
2022/12/30 08:07:12;;;;;;;19.10;10.30;;;;;;;;;;4992134;28;20402;-65
2022/12/30 08:09:38;;;;;;;20.25;11.00;;;;;;;;;;4991873;28;20371;-63
2022/12/30 08:12:04;;;;;;;16.75;10.02;;;;;;;;;;4991856;28;20006;-65
2022/12/30 08:14:30;;;;;;;23.48;11.43;;;;;;;;;;4991017;28;20038;-64
2022/12/30 08:16:56;;;;;;;20.52;10.77;;;;;;;;;;4990029;28;20412;-68
2022/12/30 08:19:22;;;;;;;25.83;11.77;;;;;;;;;;4991088;28;20031;-65
2022/12/30 08:21:48;;;;;;;23.35;11.30;;;;;;;;;;4991501;28;20133;-65
2022/12/30 08:24:14;;;;;;;21.88;10.18;;;;;;;;;;4990737;28;20497;-65
2022/12/30 08:26:40;;;;;;;19.42;9.43;;;;;;;;;;4990446;28;20116;-66
2022/12/30 08:29:06;;;;;;;18.25;9.40;;;;;;;;;;4989685;28;20029;-66
2022/12/30 08:31:33;;;;;;;20.48;9.80;;;;;;;;;;4988674;28;20053;-65
2022/12/30 08:33:59;;;;;;;21.75;9.82;;;;;;;;;;4989601;28;20053;-65
2022/12/30 08:36:26;;;;;;;20.70;10.10;;;;;;;;;;4989741;28;20053;-65
2022/12/30 08:38:53;;;;;;;21.52;10.18;;;;;;;;;;4989795;28;20101;-65
2022/12/30 08:41:21;;;;;;;21.23;9.50;;;;;;;;;;4990331;28;20034;-65
2022/12/30 08:43:47;;;;;;;17.20;9.32;;;;;;;;;;4990631;28;20027;-64
2022/12/30 08:46:13;;;;;;;17.73;8.95;;;;;;;;;;4991054;28;20038;-64
2022/12/30 08:48:39;;;;;;;18.50;8.73;;;;;;;;;;4991482;28;20041;-63
2022/12/30 08:51:06;;;;;;;21.45;10.43;;;;;;;;;;4989983;28;20451;-65
2022/12/30 08:53:33;;;;;;;18.25;8.60;;;;;;;;;;4990704;28;20050;-65
2022/12/30 08:56:13;;;;;;;22.85;10.10;;;;;;;;;;4991296;28;20102;-65
2022/12/30 08:58:39;;;;;;;20.08;9.07;;;;;;;;;;4991175;28;20026;-60
2022/12/30 09:01:09;;;;;;;17.90;8.85;;;;;;;;;;4990861;28;20038;-59
2022/12/30 09:03:36;;;;;;;19.70;8.90;;;;;;;;;;4995125;28;20031;-62
2022/12/30 09:06:02;;;;;;;21.25;10.02;;;;;;;;;;4993772;28;20037;-63
2022/12/30 09:08:28;;;;;;;18.33;9.60;;;;;;;;;;5003556;28;20030;-64
2022/12/30 09:11:02;;;;;;;17.42;8.20;;;;;;;;;;5001149;28;20022;-63
2022/12/30 09:13:28;;;;;;;18.13;8.93;;;;;;;;;;5001750;28;20034;-64
2022/12/30 09:15:54;;;;;;;23.25;8.52;;;;;;;;;;4998753;28;20026;-63
2022/12/30 09:18:20;;;;;;;18.75;7.85;;;;;;;;;;4993517;28;20499;-61
2022/12/30 09:20:47;;;;;;;15.65;7.72;;;;;;;;;;4995175;28;20034;-63
2022/12/30 09:23:13;;;;;;;17.65;8.05;;;;;;;;;;4995377;28;20037;-67
2022/12/30 09:25:39;;;;;;;19.35;7.85;;;;;;;;;;4994038;28;20487;-67
2022/12/30 09:28:05;;;;;;;20.15;7.80;;;;;;;;;;4643990;28;9999753;-70
2022/12/30 09:30:31;;;;;;;18.45;8.38;;;;;;;;;;4991818;28;20026;-68
2022/12/30 09:32:57;;;;;;;16.25;7.88;;;;;;;;;;4990878;28;20030;-68
2022/12/30 09:35:23;;;;;;;17.30;8.45;;;;;;;;;;4984690;28;20041;-69
2022/12/30 09:37:49;;;;;;;16.27;8.10;;;;;;;;;;4977325;28;20441;-68
2022/12/30 09:40:21;;;;;;;15.55;7.90;;;;;;;;;;4999347;28;20041;-66
2022/12/30 09:45:41;;;;;;;17.83;8.20;;;;;;;;;;5000854;28;20049;-65
2022/12/30 09:48:11;;;;;;;16.92;8.10;;;;;;;;;;5011078;28;20449;-67
2022/12/30 09:50:50;;;;;;;19.20;8.02;;;;;;;;;;5008724;28;20037;-66
2022/12/30 09:53:35;;;;;;;16.55;8.30;;;;;;;;;;4995043;28;20026;-66
2022/12/30 09:56:03;;;;;;;18.33;8.27;;;;;;;;;;4991187;28;20026;-66
2022/12/30 09:58:30;;;;;;;17.70;7.55;;;;;;;;;;4998474;28;20026;-65
2022/12/30 10:01:11;;;;;;;17.02;7.78;;;;;;;;;;4998519;28;20041;-67
2022/12/30 10:03:37;;;;;;;17.52;7.40;;;;;;;;;;4996524;28;20402;-66
2022/12/30 10:06:10;;;;;;;18.88;8.13;;;;;;;;;;4990978;28;20030;-66
2022/12/30 10:08:46;;;;;;;17.33;7.85;;;;;;;;;;4982311;28;20031;-71
2022/12/30 10:11:41;;;;;;;14.88;7.57;;;;;;;;;;4987324;28;20037;-65
2022/12/30 10:14:25;;;;;;;17.73;8.23;;;;;;;;;;4953325;28;20492;-66
2022/12/30 10:16:55;;;;;;;16.85;8.35;;;;;;;;;;4988857;28;20134;-66
2022/12/30 10:19:20;;;;;;;15.75;8.00;;;;;;;;;;4991156;28;20398;-69
2022/12/30 10:21:57;;;;;;;19.42;8.10;;;;;;;;;;4990903;28;20033;-68
2022/12/30 10:24:49;;;;;;;16.38;7.95;;;;;;;;;;4990401;28;20085;-66
2022/12/30 10:27:19;;;;;;;14.82;7.75;;;;;;;;;;4974743;28;20044;-68
2022/12/30 10:29:45;;;;;;;18.30;8.23;;;;;;;;;;4990989;28;20030;-67
2022/12/30 10:32:21;;;;;;;13.00;7.18;;;;;;;;;;4993530;28;20026;-67
2022/12/30 10:34:49;;;;;;;13.95;6.80;;;;;;;;;;4991664;28;20120;-67
2022/12/30 10:37:22;;;;;;;19.75;7.40;;;;;;;;;;4992101;28;20362;-66
2022/12/30 10:39:50;;;;;;;18.35;7.07;;;;;;;;;;4993332;28;20071;-66
2022/12/30 10:42:16;;;;;;;17.20;7.22;;;;;;;;;;4992861;28;20101;-66
2022/12/30 10:44:51;;;;;;;13.02;7.00;;;;;;;;;;4992131;28;20534;-67
2022/12/30 10:47:26;;;;;;;17.98;6.97;;;;;;;;;;4992875;28;20035;-66
2022/12/30 10:49:58;;;;;;;15.55;7.35;;;;;;;;;;4992961;28;20053;-66
2022/12/30 10:52:25;;;;;;;18.38;7.70;;;;;;;;;;4999801;28;20030;-66
2022/12/30 10:54:51;;;;;;;16.42;8.40;;;;;;;;;;4992277;28;20088;-66
2022/12/30 10:57:34;;;;;;;14.63;6.95;;;;;;;;;;4993205;28;20204;-66
2022/12/30 11:00:00;;;;;;;13.85;6.90;;;;;;;;;;4992930;28;20029;-66
2022/12/30 11:02:31;;;;;;;17.73;7.25;;;;;;;;;;4992748;28;20164;-69
2022/12/30 11:04:59;;;;;;;15.95;7.13;;;;;;;;;;4991231;28;20033;-69
2022/12/30 11:07:25;;;;;;;18.13;6.78;;;;;;;;;;4991989;28;20014;-67
2022/12/30 11:09:51;;;;;;;17.20;7.93;;;;;;;;;;4990945;28;20026;-66
2022/12/30 11:15:17;;;;;;;16.73;7.60;;;;;;;;;;4991501;28;20045;-64
2022/12/30 11:17:47;;;;;;;16.80;8.20;;;;;;;;;;4991881;28;20030;-67
2022/12/30 11:20:13;;;;;;;15.93;7.53;;;;;;;;;;4992164;28;20045;-67
2022/12/30 11:22:49;;;;;;;16.50;7.35;;;;;;;;;;4992266;28;20030;-67
2022/12/30 11:25:17;;;;;;;15.85;7.15;;;;;;;;;;4990607;28;20030;-65
2022/12/30 11:27:44;;;;;;;15.20;6.20;;;;;;;;;;4991537;28;20030;-67
2022/12/30 11:30:31;;;;;;;16.10;5.90;;;;;;;;;;4992386;28;20023;-68
2022/12/30 11:32:58;;;;;;;13.93;6.22;;;;;;;;;;4991768;28;20030;-68
2022/12/30 11:35:32;;;;;;;13.15;6.18;;;;;;;;;;4990165;28;20037;-68
2022/12/30 11:37:58;;;;;;;15.70;6.32;;;;;;;;;;4991974;28;20022;-68
2022/12/30 11:40:26;;;;;;;16.20;6.80;;;;;;;;;;4991717;28;20026;-68
2022/12/30 11:43:04;;;;;;;14.82;6.22;;;;;;;;;;4993817;28;20386;-68
2022/12/30 11:45:30;;;;;;;12.23;6.20;;;;;;;;;;5012483;23;20078;-65
2022/12/30 11:47:56;;;;;;;15.98;7.40;;;;;;;;;;5031921;28;20038;-65
2022/12/30 11:50:22;;;;;;;14.10;6.53;;;;;;;;;;5031232;28;20021;-63
2022/12/30 11:52:50;;;;;;;14.90;7.28;;;;;;;;;;5031532;28;20121;-64
2022/12/30 11:55:23;;;;;;;13.82;5.93;;;;;;;;;;5030903;28;20056;-62
2022/12/30 11:57:50;;;;;;;17.17;6.35;;;;;;;;;;5031755;28;20033;-64
2022/12/30 12:00:16;;;;;;;15.00;6.32;;;;;;;;;;5031558;28;20409;-65
2022/12/30 12:02:49;;;;;;;13.48;6.20;;;;;;;;;;5031505;28;20026;-65
2022/12/30 12:05:42;;;;;;;14.15;6.28;;;;;;;;;;5030703;28;20057;-65
2022/12/30 12:08:26;;;;;;;12.75;6.28;;;;;;;;;;5025217;28;20038;-65
2022/12/30 12:11:03;;;;;;;13.65;6.82;;;;;;;;;;5032001;28;20394;-65
2022/12/30 12:13:29;;;;;;;16.27;6.68;;;;;;;;;;5029659;28;20025;-61
2022/12/30 12:15:56;;;;;;;16.63;6.70;;;;;;;;;;5030067;28;20025;-58
2022/12/30 12:18:25;;;;;;;15.70;6.65;;;;;;;;;;5030218;28;20029;-57
2022/12/30 12:20:54;;;;;;;12.93;6.05;;;;;;;;;;5031190;28;20492;-61
2022/12/30 12:23:39;;;;;;;19.88;6.72;;;;;;;;;;5030750;28;20032;-63
2022/12/30 12:26:23;;;;;;;15.13;6.97;;;;;;;;;;5030939;28;20448;-58
2022/12/30 12:28:51;;;;;;;16.83;6.85;;;;;;;;;;5030227;28;20088;-62
2022/12/30 12:31:17;;;;;;;;;;;;;;;;;;5031273;28;20034;-59
2022/12/30 12:33:49;;;;;;;15.38;6.78;;;;;;;;;;5030372;28;20404;-55
2022/12/30 12:36:18;;;;;;;17.35;6.28;;;;;;;;;;4677912;28;10000227;-59
2022/12/30 12:38:50;;;;;;;17.75;6.50;;;;;;;;;;5027484;28;20041;-63
2022/12/30 12:41:35;;;;;;;13.52;6.43;;;;;;;;;;5029927;28;20083;-62
2022/12/30 12:44:19;;;;;;;17.73;6.70;;;;;;;;;;5030774;28;20036;-62
2022/12/30 12:47:13;;;;;;;14.63;6.80;;;;;;;;;;5011768;28;20072;-56
2022/12/30 12:49:56;;;;;;;16.17;6.20;;;;;;;;;;5011502;28;20030;-57
2022/12/30 12:52:38;;;;;;;13.68;6.40;;;;;;;;;;5012213;28;20022;-59
2022/12/30 12:55:07;;;;;;;17.33;6.20;;;;;;;;;;5011385;28;20042;-54
2022/12/30 12:57:49;;;;;;;15.25;7.50;;;;;;;;;;5010367;28;20034;-59
2022/12/30 13:00:18;;;;;;;13.77;6.35;;;;;;;;;;5011075;28;20049;-59
2022/12/30 13:03:02;;;;;;;13.40;6.20;;;;;;;;;;5011728;28;20026;-61
2022/12/30 13:05:38;;;;;;;18.88;6.88;;;;;;;;;;5011304;28;20045;-57
2022/12/30 13:08:04;;;;;;;16.40;6.65;;;;;;;;;;5013632;28;20057;-58
2022/12/30 13:10:42;;;;;;;12.95;5.97;;;;;;;;;;5020312;28;20084;-61
2022/12/30 13:13:26;;;;;;;14.35;6.30;;;;;;;;;;5032466;28;20025;-59
2022/12/30 13:16:18;;;;;;;12.65;6.03;;;;;;;;;;5033084;28;20022;-60
2022/12/30 13:18:46;;;;;;;14.23;6.40;;;;;;;;;;5030594;28;20091;-56
2022/12/30 13:21:13;;;;;;;17.17;7.28;;;;;;;;;;5033636;28;20091;-58
2022/12/30 13:23:53;;;;;;;15.40;7.72;;;;;;;;;;5033096;28;20021;-57
2022/12/30 13:26:21;;;;;;;15.73;6.40;;;;;;;;;;5033783;28;20017;-58
2022/12/30 13:28:50;;;;;;;19.75;9.80;;;;;;;;;;5033651;28;20036;-58
2022/12/30 13:31:16;;;;;;;;;;;;;;;;;;5034471;28;20037;-60
2022/12/30 13:33:42;;;;;;;17.67;7.20;;;;;;;;;;5033017;28;19912;-56
2022/12/30 13:36:11;;;;;;;15.95;6.50;;;;;;;;;;5034084;28;20146;-59
2022/12/30 13:38:46;;;;;;;15.77;6.18;;;;;;;;;;5034388;28;20057;-63
2022/12/30 13:41:26;;;;;;;14.90;6.50;;;;;;;;;;4683410;28;9999927;-61
2022/12/30 13:43:53;;;;;;;14.48;6.55;;;;;;;;;;5029685;28;20043;-61
2022/12/30 13:46:24;;;;;;;13.70;5.97;;;;;;;;;;5030631;28;20393;-58
2022/12/30 13:49:06;;;;;;;13.98;5.90;;;;;;;;;;5030769;28;20108;-60
2022/12/30 13:51:33;;;;;;;16.23;6.13;;;;;;;;;;5030225;28;20021;-61
2022/12/30 13:54:02;;;;;;;15.45;6.50;;;;;;;;;;5029372;28;20033;-58
2022/12/30 13:56:39;;;;;;;15.02;6.22;;;;;;;;;;5029014;28;20474;-61
2022/12/30 13:59:05;;;;;;;13.77;5.82;;;;;;;;;;5030760;28;20044;-59
2022/12/30 14:01:33;;;;;;;15.85;6.38;;;;;;;;;;5030606;28;20029;-61
2022/12/30 14:04:11;;;;;;;15.15;6.00;;;;;;;;;;5030067;28;20584;-63
2022/12/30 14:06:40;;;;;;;13.77;5.82;;;;;;;;;;5030238;28;20034;-54
2022/12/30 14:09:39;;;;;;;14.88;6.03;;;;;;;;;;5029945;28;20028;-61
2022/12/30 14:12:05;;;;;;;13.60;6.13;;;;;;;;;;4994767;28;20026;-59
2022/12/30 14:14:38;;;;;;;14.38;6.20;;;;;;;;;;5027427;28;20022;-58
2022/12/30 14:17:08;;;;;;;13.35;5.80;;;;;;;;;;5029166;28;20037;-60
2022/12/30 14:19:39;;;;;;;14.15;5.75;;;;;;;;;;5029572;28;20034;-59
2022/12/30 14:22:06;;;;;;;13.65;7.03;;;;;;;;;;5032308;28;20029;-59
2022/12/30 14:24:33;;;;;;;15.45;6.72;;;;;;;;;;5030873;28;20033;-57
2022/12/30 14:26:59;;;;;;;12.98;6.30;;;;;;;;;;5033203;28;20029;-62
2022/12/30 14:29:33;;;;;;;13.10;6.38;;;;;;;;;;5033275;28;20105;-61
2022/12/30 14:32:04;;;;;;;13.25;6.55;;;;;;;;;;5033026;28;20049;-61
2022/12/30 14:34:33;;;;;;;14.13;6.53;;;;;;;;;;5032351;28;20033;-57
2022/12/30 14:37:01;;;;;;;18.20;7.28;;;;;;;;;;5031818;28;20029;-57
2022/12/30 14:39:27;;;;;;;19.77;7.57;;;;;;;;;;5032947;28;20041;-56
2022/12/30 14:41:54;;;;;;;14.90;8.55;;;;;;;;;;5031431;28;20517;-62
2022/12/30 14:44:23;;;;;;;16.02;9.93;;;;;;;;;;5030370;28;20492;-59
2022/12/30 14:46:53;;;;;;;16.88;9.85;;;;;;;;;;5032218;28;20033;-58
2022/12/30 14:49:39;;;;;;;18.65;13.52;;;;;;;;;;5032418;28;20092;-59
2022/12/30 14:52:07;;;;;;;17.60;13.32;;;;;;;;;;5032935;28;20505;-60
2022/12/30 14:54:33;;;;;;;17.30;13.35;;;;;;;;;;5031924;28;20125;-57
2022/12/30 14:57:11;;;;;;;18.90;13.27;;;;;;;;;;5032566;28;20037;-59
2022/12/30 14:59:45;;;;;;;18.95;14.43;;;;;;;;;;5032673;28;20021;-58
2022/12/30 15:02:16;;;;;;;19.50;15.70;;;;;;;;;;5031223;28;20052;-57
2022/12/30 15:04:42;;;;;;;23.27;21.08;;;;;;;;;;5031146;28;20029;-59
2022/12/30 15:07:09;;;;;;;24.48;22.15;;;;;;;;;;5030935;28;20036;-64
2022/12/30 15:09:35;;;;;;;24.20;22.00;;;;;;;;;;5029195;28;20075;-60
2022/12/30 15:12:04;;;;;;;28.60;26.02;;;;;;;;;;5031445;28;20028;-63
2022/12/30 15:14:29;;;;;;;;;;;;;;;;;;5029149;28;20113;-58
2022/12/30 15:17:06;;;;;;;28.30;25.90;;;;;;;;;;5029368;28;19916;-59
2022/12/30 15:19:33;;;;;;;28.20;25.65;;;;;;;;;;5028446;28;20504;-61
2022/12/30 15:21:59;;;;;;;29.75;27.30;;;;;;;;;;5030656;28;20041;-62
2022/12/30 15:24:25;;;;;;;26.70;24.40;;;;;;;;;;5029756;28;20368;-58
2022/12/30 15:26:52;;;;;;;26.00;23.52;;;;;;;;;;5030206;28;20462;-62
2022/12/30 15:29:29;;;;;;;24.92;22.70;;;;;;;;;;5028985;28;20021;-60
2022/12/30 15:31:56;;;;;;;21.42;19.33;;;;;;;;;;5030117;28;20529;-63
2022/12/30 15:34:30;;;;;;;20.92;18.60;;;;;;;;;;5029279;28;20029;-62
2022/12/30 15:36:56;;;;;;;19.55;17.58;;;;;;;;;;5030634;28;20017;-56
2022/12/30 15:39:24;;;;;;;19.48;16.95;;;;;;;;;;5030576;28;20511;-62
2022/12/30 15:41:50;;;;;;;18.73;16.30;;;;;;;;;;5030249;28;20025;-60